Time;durP1;ratioP1;P1;durP2;ratioP2;P2;SDS_P1;SDS_P2;PMS_P1;PMS_P2;Temp;Humidity;BMP_temperature;BMP_pressure;BME280_temperature;BME280_humidity;BME280_pressure;Samples;Min_cycle;Max_cycle;Signal;HPM_P1;HPM_P2
2022/07/31 00:00:34;;;;;;;7.57;6.97;;;;;;;19.51;73.49;98378.72;4207822;28;20637;-83
2022/07/31 00:02:37;;;;;;;7.27;6.67;;;;;;;19.50;74.03;98381.53;4206870;28;21229;-83
2022/07/31 00:04:40;;;;;;;7.80;7.10;;;;;;;19.48;74.40;98376.41;4193425;28;20638;-83
2022/07/31 00:06:44;;;;;;;8.00;7.20;;;;;;;19.46;74.45;98383.66;4190321;28;20671;-84
2022/07/31 00:08:49;;;;;;;7.80;7.10;;;;;;;19.43;74.60;98381.31;4202778;28;20671;-83
2022/07/31 00:10:52;;;;;;;7.70;7.00;;;;;;;19.41;74.95;98378.00;4200365;28;20651;-84
2022/07/31 00:12:57;;;;;;;7.40;6.77;;;;;;;19.36;74.79;98375.97;4192000;28;20641;-84
2022/07/31 00:15:00;;;;;;;7.17;6.53;;;;;;;19.29;74.62;98375.75;4191591;28;20636;-82
2022/07/31 00:17:03;;;;;;;8.27;7.20;;;;;;;19.26;75.33;98375.19;4202272;28;20635;-83
2022/07/31 00:19:07;;;;;;;8.10;7.50;;;;;;;19.25;75.04;98374.38;4218674;28;20698;-83
2022/07/31 00:21:12;;;;;;;6.87;6.30;;;;;;;19.26;75.55;98361.97;4202539;28;20694;-84
2022/07/31 00:23:16;;;;;;;7.60;6.90;;;;;;;19.24;74.58;98367.41;4192710;28;20740;-83
2022/07/31 00:25:21;;;;;;;7.77;7.00;;;;;;;19.25;74.91;98371.72;4203425;28;20636;-84
2022/07/31 00:27:24;;;;;;;7.43;6.83;;;;;;;19.25;76.13;98365.63;4191858;28;20628;-83
2022/07/31 00:29:29;;;;;;;7.47;6.77;;;;;;;19.24;76.50;98371.88;4204431;28;21169;-83
2022/07/31 00:31:32;;;;;;;7.73;7.03;;;;;;;19.21;76.01;98373.00;4208068;28;20732;-84
2022/07/31 00:33:41;;;;;;;7.93;7.00;;;;;;;19.20;74.94;98368.72;4207474;28;20676;-84
2022/07/31 00:35:44;;;;;;;7.80;6.73;;;;;;;19.15;75.58;98368.31;4194698;28;20639;-84
2022/07/31 00:37:47;;;;;;;7.73;6.93;;;;;;;19.14;75.27;98363.16;4211207;28;20646;-84
2022/07/31 00:39:50;;;;;;;7.37;6.67;;;;;;;19.11;76.11;98358.19;4208301;28;20632;-84
2022/07/31 00:41:54;;;;;;;7.80;7.13;;;;;;;19.09;76.32;98360.16;4207274;28;20635;-84
2022/07/31 00:43:57;;;;;;;8.43;6.80;;;;;;;19.06;75.48;98363.09;4225753;27;20638;-83
2022/07/31 00:46:01;;;;;;;7.90;7.13;;;;;;;19.03;76.07;98364.25;4192394;28;20690;-84
2022/07/31 00:48:05;;;;;;;9.70;7.23;;;;;;;19.00;76.34;98363.66;4191744;28;20673;-83
2022/07/31 00:50:10;;;;;;;7.77;7.07;;;;;;;18.98;76.08;98361.16;4225093;27;20652;-84
2022/07/31 00:52:13;;;;;;;7.43;6.73;;;;;;;19.00;76.49;98369.81;4194106;28;20639;-84
2022/07/31 00:54:16;;;;;;;6.97;6.37;;;;;;;19.03;76.94;98366.91;4206250;28;20622;-84
2022/07/31 00:56:25;;;;;;;8.10;7.50;;;;;;;19.05;76.55;98366.75;4208509;28;20630;-83
2022/07/31 00:58:28;;;;;;;7.87;7.07;;;;;;;19.08;75.73;98363.81;4208087;28;21204;-84
2022/07/31 01:00:31;;;;;;;7.30;6.70;;;;;;;19.11;76.59;98360.81;4220908;27;20668;-83
2022/07/31 01:02:37;;;;;;;7.93;7.20;;;;;;;19.13;76.66;98364.19;4195404;28;21115;-84
2022/07/31 01:04:48;;;;;;;8.43;7.37;;;;;;;19.11;75.29;98368.75;4204047;28;20642;-84
2022/07/31 01:06:52;;;;;;;8.37;7.67;;;;;;;19.08;75.46;98369.91;4220408;28;20814;-84
2022/07/31 01:08:55;;;;;;;8.57;7.87;;;;;;;19.09;74.62;98370.72;4204903;28;20627;-84
2022/07/31 01:11:04;;;;;;;8.60;7.70;;;;;;;19.08;74.48;98364.63;4202787;28;21213;-83
2022/07/31 01:13:18;;;;;;;8.87;8.17;;;;;;;19.08;75.53;98366.44;4204111;28;21263;-83
2022/07/31 01:15:21;;;;;;;9.10;8.40;;;;;;;19.09;75.15;98368.09;4190658;28;20649;-83
2022/07/31 01:17:25;;;;;;;9.03;8.20;;;;;;;19.10;75.33;98364.47;4208227;28;20799;-84
2022/07/31 01:19:36;;;;;;;8.87;8.07;;;;;;;19.11;75.46;98366.13;4217875;28;20685;-84
2022/07/31 01:21:54;;;;;;;10.13;9.13;;;;;;;19.11;75.11;98371.41;4193516;28;21194;-84
2022/07/31 01:24:15;;;;;;;9.03;8.23;;;;;;;19.12;76.21;98363.31;4204765;28;21253;-84
2022/07/31 01:26:48;;;;;;;8.53;7.80;;;;;;;19.11;75.86;98364.31;4204271;28;20657;-83
2022/07/31 01:29:08;;;;;;;8.73;7.43;;;;;;;19.10;76.62;98365.28;4206710;28;20636;-84
2022/07/31 01:31:16;;;;;;;7.63;6.93;;;;;;;19.06;75.03;98363.09;4203559;28;20630;-83
2022/07/31 01:33:34;;;;;;;8.10;7.40;;;;;;;19.02;75.33;98356.47;4189004;28;20615;-84
2022/07/31 01:35:42;;;;;;;8.77;8.07;;;;;;;18.99;75.19;98362.84;4189715;28;20709;-84
2022/07/31 01:37:48;;;;;;;8.00;7.30;;;;;;;18.98;75.85;98355.06;4190260;28;20628;-84
2022/07/31 01:39:55;;;;;;;10.30;7.30;;;;;;;18.98;75.69;98361.16;4207417;28;20659;-84
2022/07/31 01:41:58;;;;;;;8.20;7.50;;;;;;;18.97;75.90;98367.47;4209968;28;20663;-84
2022/07/31 01:44:04;;;;;;;8.03;7.33;;;;;;;18.94;76.29;98369.53;4185486;28;21022;-83
2022/07/31 01:46:10;;;;;;;8.37;7.67;;;;;;;18.93;76.24;98373.19;4223997;28;20725;-83
2022/07/31 01:48:15;;;;;;;8.57;7.67;;;;;;;18.89;76.35;98364.72;4204375;28;20642;-84
2022/07/31 01:50:19;;;;;;;7.97;7.07;;;;;;;18.86;76.55;98361.53;4208740;28;20727;-83
2022/07/31 01:52:43;;;;;;;8.10;7.40;;;;;;;18.83;75.93;98355.72;4208367;28;20623;-84
2022/07/31 01:54:47;;;;;;;7.87;7.27;;;;;;;18.79;76.52;98360.47;4205931;28;20646;-83
2022/07/31 01:56:51;;;;;;;7.90;7.27;;;;;;;18.78;76.97;98352.69;4191543;28;20639;-84
2022/07/31 01:58:54;;;;;;;7.90;7.10;;;;;;;18.75;76.64;98359.13;4190293;28;20639;-83
2022/07/31 02:01:23;;;;;;;8.23;7.43;;;;;;;18.75;76.53;98359.13;4226455;27;20706;-83
2022/07/31 02:03:30;;;;;;;8.90;7.67;;;;;;;18.73;76.30;98358.41;4196305;28;20643;-84
2022/07/31 02:05:49;;;;;;;8.30;7.57;;;;;;;18.72;77.15;98359.41;4208094;28;20627;-84
2022/07/31 02:07:53;;;;;;;8.33;7.50;;;;;;;18.70;76.91;98361.38;4207620;28;20745;-84
2022/07/31 02:09:59;;;;;;;7.70;7.10;;;;;;;18.70;77.14;98366.66;4207999;28;21206;-83
2022/07/31 02:12:08;;;;;;;8.53;7.73;;;;;;;18.68;77.45;98363.31;4216831;28;20641;-84
2022/07/31 02:14:14;;;;;;;8.17;7.30;;;;;;;18.66;77.51;98357.34;4189510;28;20639;-84
2022/07/31 02:16:18;;;;;;;8.70;7.90;;;;;;;18.64;77.43;98359.31;4191063;28;20735;-84
2022/07/31 02:18:27;;;;;;;8.73;7.83;;;;;;;18.62;77.77;98357.78;4206868;28;20713;-83
2022/07/31 02:20:45;;;;;;;9.87;8.20;;;;;;;18.56;76.81;98359.22;4188592;28;20620;-84
2022/07/31 02:22:48;;;;;;;8.50;7.80;;;;;;;18.53;77.43;98356.84;4194176;28;20622;-83
2022/07/31 02:24:52;;;;;;;8.47;7.77;;;;;;;18.51;77.64;98358.81;4194924;28;20637;-83
2022/07/31 02:26:55;;;;;;;8.60;7.80;;;;;;;18.49;77.75;98357.28;4193785;28;20741;-84
2022/07/31 02:28:58;;;;;;;8.80;7.90;;;;;;;18.46;77.85;98355.81;4209731;28;20642;-83
2022/07/31 02:31:02;;;;;;;8.40;7.70;;;;;;;18.40;78.41;98350.25;4192950;28;21230;-83
2022/07/31 02:33:08;;;;;;;8.33;7.50;;;;;;;18.35;77.87;98351.69;4191057;28;20669;-83
2022/07/31 02:35:13;;;;;;;8.53;7.80;;;;;;;18.30;78.38;98353.94;4207042;28;20633;-83
2022/07/31 02:37:17;;;;;;;8.80;8.10;;;;;;;18.29;78.66;98352.28;4205868;28;21325;-83
2022/07/31 02:39:20;;;;;;;9.13;8.23;;;;;;;18.26;78.29;98357.84;4205901;28;20743;-83
2022/07/31 02:41:25;;;;;;;8.00;7.30;;;;;;;18.26;78.06;98357.84;4191947;28;20632;-84
2022/07/31 02:43:29;;;;;;;8.73;7.87;;;;;;;18.24;79.41;98362.44;4187381;28;20637;-83
2022/07/31 02:45:34;;;;;;;8.77;7.97;;;;;;;18.23;78.28;98355.50;4218959;28;20632;-84
2022/07/31 02:47:39;;;;;;;8.73;7.83;;;;;;;18.21;78.26;98352.16;4191403;28;21489;-84
2022/07/31 02:49:46;;;;;;;8.97;8.17;;;;;;;18.20;78.02;98361.88;4208982;28;20714;-83
2022/07/31 02:51:51;;;;;;;8.67;7.97;;;;;;;18.18;78.74;98363.03;4207348;28;20733;-84
2022/07/31 02:53:55;;;;;;;9.17;8.30;;;;;;;18.16;78.61;98351.75;4209600;28;20738;-83
2022/07/31 02:56:03;;;;;;;8.27;7.57;;;;;;;18.15;79.01;98347.47;4191903;28;20718;-83
2022/07/31 02:58:08;;;;;;;8.67;7.63;;;;;;;18.13;78.58;98350.25;4206225;28;20690;-84
2022/07/31 03:00:21;;;;;;;9.70;8.80;;;;;;;18.11;79.51;98349.50;4210020;28;20730;-84
2022/07/31 03:02:26;;;;;;;8.53;7.83;;;;;;;18.10;78.79;98352.28;4206172;28;20680;-84
2022/07/31 03:04:40;;;;;;;8.40;7.67;;;;;;;18.07;79.22;98355.22;4203358;28;20634;-84
2022/07/31 03:06:44;;;;;;;8.50;7.80;;;;;;;18.04;78.44;98364.28;4189514;28;20681;-84
2022/07/31 03:08:48;;;;;;;8.83;8.03;;;;;;;18.05;79.10;98357.19;4184936;28;20682;-83
2022/07/31 03:10:55;;;;;;;9.13;8.33;;;;;;;18.03;79.76;98359.97;4208428;28;20728;-82
2022/07/31 03:13:00;;;;;;;8.77;8.00;;;;;;;18.04;79.66;98364.28;4205296;28;20629;-82
2022/07/31 03:15:05;;;;;;;8.17;7.47;;;;;;;18.00;79.54;98372.63;4190372;28;20618;-83
2022/07/31 03:17:09;;;;;;;9.20;8.30;;;;;;;17.98;79.35;98361.38;4202628;28;20617;-83
2022/07/31 03:19:12;;;;;;;8.73;7.83;;;;;;;17.96;79.70;98358.03;4208810;28;21436;-83
2022/07/31 03:21:17;;;;;;;8.70;7.90;;;;;;;17.92;79.43;98361.97;4222735;27;20667;-83
2022/07/31 03:23:22;;;;;;;8.40;7.60;;;;;;;17.87;80.28;98361.53;4188762;28;20974;-83
2022/07/31 03:25:33;;;;;;;8.37;7.63;;;;;;;17.84;79.86;98359.19;4217016;28;20716;-80
2022/07/31 03:27:36;;;;;;;9.13;8.23;;;;;;;17.82;79.40;98361.16;4192135;28;21182;-84
2022/07/31 03:29:40;;;;;;;10.03;8.33;;;;;;;17.81;79.88;98356.00;4216447;28;20628;-84
2022/07/31 03:31:46;;;;;;;8.73;7.87;;;;;;;17.76;79.21;98353.78;4193165;28;21204;-83
2022/07/31 03:33:49;;;;;;;8.37;7.57;;;;;;;17.72;80.79;98356.84;4222976;28;20663;-83
2022/07/31 03:35:53;;;;;;;8.07;7.27;;;;;;;17.67;80.45;98359.94;4204988;28;20638;-84
2022/07/31 03:37:56;;;;;;;9.17;8.27;;;;;;;17.65;80.25;98358.38;4218212;28;21002;-83
2022/07/31 03:39:59;;;;;;;9.47;8.67;;;;;;;17.61;80.59;98368.41;4204775;28;21195;-84
2022/07/31 03:42:04;;;;;;;9.20;8.40;;;;;;;17.57;80.69;98364.38;4201702;28;21287;-83
2022/07/31 03:44:08;;;;;;;8.97;7.97;;;;;;;17.54;80.02;98366.47;4206430;28;20731;-84
2022/07/31 03:46:12;;;;;;;8.93;8.13;;;;;;;17.47;80.33;98358.28;4213431;28;20736;-83
2022/07/31 03:48:15;;;;;;;9.53;8.73;;;;;;;17.42;81.39;98356.22;4208116;28;21251;-83
2022/07/31 03:50:18;;;;;;;9.57;8.77;;;;;;;17.38;80.43;98357.44;4190656;28;20667;-83
2022/07/31 03:52:22;;;;;;;9.03;8.20;;;;;;;17.38;81.66;98350.41;4190684;28;21226;-84
2022/07/31 03:54:25;;;;;;;9.37;8.30;;;;;;;17.39;81.56;98354.69;4206416;28;20740;-83
2022/07/31 03:56:50;;;;;;;9.70;8.90;;;;;;;17.40;80.52;98364.25;4204895;28;20632;-84
2022/07/31 03:58:55;;;;;;;9.40;8.50;;;;;;;17.40;80.55;98369.53;4189839;28;20650;-84
2022/07/31 04:00:59;;;;;;;9.27;8.47;;;;;;;17.42;80.80;98366.75;4208373;28;20698;-84
2022/07/31 04:03:06;;;;;;;16.67;8.67;;;;;;;17.42;80.84;98374.69;4207579;28;21026;-84
2022/07/31 04:05:33;;;;;;;9.20;8.40;;;;;;;17.41;82.44;98379.13;4217275;28;20675;-84
2022/07/31 04:07:36;;;;;;;9.17;8.47;;;;;;;17.41;81.94;98379.13;4195559;28;21016;-83
2022/07/31 04:09:39;;;;;;;9.37;8.47;;;;;;;17.41;81.37;98383.56;4207152;28;20746;-84
2022/07/31 04:11:44;;;;;;;9.13;8.33;;;;;;;17.41;81.49;98380.91;4189796;28;20666;-84
2022/07/31 04:13:47;;;;;;;8.97;8.27;;;;;;;17.44;81.34;98372.72;4206336;28;20644;-84
2022/07/31 04:15:51;;;;;;;9.87;8.97;;;;;;;17.45;81.21;98374.41;4192823;28;20630;-84
2022/07/31 04:17:55;;;;;;;9.80;8.97;;;;;;;17.47;81.97;98370.66;4194776;28;20623;-83
2022/07/31 04:20:05;;;;;;;8.77;7.97;;;;;;;17.46;82.00;98368.16;4207132;28;20998;-84
2022/07/31 04:22:09;;;;;;;9.17;8.37;;;;;;;17.41;81.88;98365.94;4209543;28;20699;-84
2022/07/31 04:24:15;;;;;;;9.00;8.20;;;;;;;17.33;82.53;98365.78;4207284;28;20637;-84
2022/07/31 04:26:29;;;;;;;9.43;8.40;;;;;;;17.32;82.71;98371.19;4206226;28;21192;-84
2022/07/31 04:28:36;;;;;;;9.10;8.30;;;;;;;17.29;82.91;98376.75;4192611;28;20758;-83
2022/07/31 04:30:39;;;;;;;11.80;8.87;;;;;;;17.26;81.40;98367.34;4188179;28;20632;-84
2022/07/31 04:32:44;;;;;;;9.67;8.13;;;;;;;17.25;83.36;98373.56;4219542;28;20640;-83
2022/07/31 04:34:52;;;;;;;9.13;8.33;;;;;;;17.26;82.44;98380.50;4207162;28;21072;-84
2022/07/31 04:36:55;;;;;;;10.17;9.27;;;;;;;17.27;82.04;98374.25;4223570;28;20715;-84
2022/07/31 04:38:58;;;;;;;9.20;8.40;;;;;;;17.28;82.96;98381.19;4208574;28;20623;-84
2022/07/31 04:41:01;;;;;;;9.87;9.07;;;;;;;17.31;83.29;98380.09;4220945;28;21280;-83
2022/07/31 04:43:04;;;;;;;12.77;9.23;;;;;;;17.36;83.45;98378.69;4192037;28;20684;-84
2022/07/31 04:45:09;;;;;;;9.30;8.50;;;;;;;17.38;82.91;98387.31;4191870;28;20632;-84
2022/07/31 04:47:12;;;;;;;9.97;9.07;;;;;;;17.41;82.19;98388.81;4194330;28;20628;-84
2022/07/31 04:49:20;;;;;;;10.33;9.40;;;;;;;17.43;82.98;98387.72;4194301;28;20661;-84
2022/07/31 04:51:24;;;;;;;9.60;8.70;;;;;;;17.47;81.85;98397.84;4197226;28;20632;-84
2022/07/31 04:53:27;;;;;;;9.87;8.97;;;;;;;17.51;83.06;98395.75;4194917;28;20642;-84
2022/07/31 04:55:30;;;;;;;10.43;9.40;;;;;;;17.53;82.06;98393.84;4220862;28;20750;-83
2022/07/31 04:57:34;;;;;;;10.17;9.13;;;;;;;17.56;81.83;98396.16;4222800;28;20648;-83
2022/07/31 04:59:37;;;;;;;9.73;8.93;;;;;;;17.61;81.60;98402.69;4207378;28;21114;-83
2022/07/31 05:02:00;;;;;;;9.80;8.90;;;;;;;17.68;81.90;98401.19;4208593;28;20644;-84
2022/07/31 05:04:04;;;;;;;10.27;9.27;;;;;;;17.73;81.32;98398.13;4221922;28;20634;-84
2022/07/31 05:06:12;;;;;;;10.10;9.20;;;;;;;17.78;81.86;98401.16;4209680;28;21207;-84
2022/07/31 05:08:15;;;;;;;9.40;8.70;;;;;;;17.82;81.66;98390.19;4207657;28;20636;-84
2022/07/31 05:12:41;;;;;;;9.77;8.87;;;;;;;17.96;81.39;98395.00;4194056;28;21301;-83
2022/07/31 05:14:44;;;;;;;10.63;9.63;;;;;;;18.00;80.86;98401.66;4194875;28;20622;-83
2022/07/31 05:16:48;;;;;;;9.80;8.90;;;;;;;18.05;80.38;98394.16;4207245;28;21343;-83
2022/07/31 05:18:53;;;;;;;10.17;9.20;;;;;;;18.13;80.36;98399.56;4190928;28;21245;-84
2022/07/31 05:21:16;;;;;;;9.93;8.97;;;;;;;18.25;79.91;98394.00;4211302;28;20685;-84
2022/07/31 05:23:49;;;;;;;10.00;9.03;;;;;;;18.37;79.54;98395.44;4173652;28;20636;-84
2022/07/31 05:26:00;;;;;;;10.07;9.27;;;;;;;18.55;79.67;98399.00;4193632;28;20728;-87
2022/07/31 05:28:04;;;;;;;10.40;9.50;;;;;;;18.73;81.63;98390.13;4186994;28;20675;-87
2022/07/31 05:30:12;;;;;;;10.10;9.30;;;;;;;18.92;79.93;98388.19;4188940;28;20710;-83
2022/07/31 05:32:15;;;;;;;9.20;8.30;;;;;;;19.08;79.46;98396.34;4205608;28;20682;-83
2022/07/31 05:34:20;;;;;;;11.23;9.00;;;;;;;19.31;79.48;98400.22;4217908;28;20648;-83
2022/07/31 05:36:26;;;;;;;8.83;7.97;;;;;;;19.47;78.30;98393.28;4206384;28;20647;-83
2022/07/31 05:38:30;;;;;;;8.90;8.10;;;;;;;19.63;78.06;98400.50;4192142;28;20756;-83
2022/07/31 05:40:54;;;;;;;9.20;8.27;;;;;;;19.82;77.02;98393.22;4179435;28;20631;-83
2022/07/31 05:43:17;;;;;;;11.10;8.33;;;;;;;20.01;77.18;98391.25;4193451;28;20636;-83
2022/07/31 05:45:40;;;;;;;7.70;7.00;;;;;;;20.14;77.00;98401.44;4214198;28;21255;-83
2022/07/31 05:47:43;;;;;;;7.50;6.80;;;;;;;20.18;75.34;98400.13;4209646;28;20995;-83
2022/07/31 05:49:46;;;;;;;7.57;6.97;;;;;;;20.23;75.31;98396.00;4194432;28;20650;-83
2022/07/31 05:51:53;;;;;;;7.87;7.23;;;;;;;20.28;74.45;98398.19;4224784;27;21196;-83
2022/07/31 05:53:56;;;;;;;7.60;6.97;;;;;;;20.27;76.26;98404.50;4206837;28;20631;-83
2022/07/31 05:56:18;;;;;;;8.13;7.43;;;;;;;20.26;74.58;98408.13;4222455;28;21249;-84
2022/07/31 05:58:24;;;;;;;7.87;7.27;;;;;;;20.27;77.07;98402.66;4189119;28;20622;-82
2022/07/31 06:00:29;;;;;;;8.53;7.73;;;;;;;20.30;76.98;98405.00;4205230;28;20734;-83
2022/07/31 06:02:34;;;;;;;8.40;7.67;;;;;;;20.35;76.33;98411.47;4193726;28;21230;-83
2022/07/31 06:05:03;;;;;;;8.30;7.60;;;;;;;20.39;75.83;98407.53;4208553;28;20635;-83
2022/07/31 06:07:08;;;;;;;8.23;7.43;;;;;;;20.43;74.70;98416.84;4195153;28;20795;-84
2022/07/31 06:09:11;;;;;;;8.03;7.23;;;;;;;20.49;74.74;98412.72;4208369;28;20774;-83
2022/07/31 06:11:18;;;;;;;7.80;7.10;;;;;;;20.53;74.04;98411.41;4206761;28;20639;-83
2022/07/31 06:13:24;;;;;;;8.30;7.20;;;;;;;20.62;74.76;98419.25;4217736;27;20745;-84
2022/07/31 06:15:28;;;;;;;7.90;7.20;;;;;;;20.68;74.20;98416.00;4209500;28;20795;-83
2022/07/31 06:17:38;;;;;;;9.43;7.77;;;;;;;20.74;73.87;98412.72;4225098;28;20634;-83
2022/07/31 06:20:01;;;;;;;8.40;7.60;;;;;;;20.85;75.04;98415.06;4207513;28;20678;-83
2022/07/31 06:22:04;;;;;;;8.10;7.30;;;;;;;21.02;75.11;98420.28;4192280;28;21431;-84
2022/07/31 06:24:09;;;;;;;7.50;6.87;;;;;;;21.14;73.55;98413.69;4200922;28;20624;-84
2022/07/31 06:26:18;;;;;;;7.70;7.00;;;;;;;21.27;72.67;98421.16;4206563;28;20769;-83
2022/07/31 06:28:24;;;;;;;7.40;6.57;;;;;;;21.33;73.36;98411.56;4211556;28;20636;-81
2022/07/31 06:30:47;;;;;;;8.03;7.43;;;;;;;21.44;74.28;98416.56;4207246;28;20691;-83
2022/07/31 06:32:50;;;;;;;8.03;7.33;;;;;;;21.51;74.65;98417.59;4209089;28;20649;-83
2022/07/31 06:34:53;;;;;;;7.87;7.27;;;;;;;21.57;72.59;98424.06;4191158;28;20636;-83
2022/07/31 06:36:57;;;;;;;7.60;7.00;;;;;;;21.60;72.61;98421.09;4207942;28;20661;-83
2022/07/31 06:39:01;;;;;;;7.80;7.10;;;;;;;21.65;72.41;98424.94;4203848;28;20620;-82
2022/07/31 06:41:06;;;;;;;7.83;7.13;;;;;;;21.69;73.81;98428.88;4210686;28;20635;-84
2022/07/31 06:43:25;;;;;;;7.63;6.93;;;;;;;21.75;72.45;98428.22;4210948;28;21064;-83
2022/07/31 06:45:51;;;;;;;7.83;7.10;;;;;;;21.81;73.40;98432.88;4214010;28;20690;-84
2022/07/31 06:48:14;;;;;;;7.83;7.13;;;;;;;21.88;72.97;98433.91;4222601;28;20641;-85
2022/07/31 06:50:22;;;;;;;8.27;7.57;;;;;;;21.97;73.57;98435.56;4203425;28;20668;-83
2022/07/31 06:52:45;;;;;;;8.40;7.60;;;;;;;22.10;71.99;98431.41;4208356;28;20633;-84
2022/07/31 06:54:48;;;;;;;7.37;6.70;;;;;;;22.25;72.11;98438.56;4202402;28;20646;-84
2022/07/31 06:56:53;;;;;;;7.87;7.07;;;;;;;22.43;70.72;98439.19;4212273;28;20635;-88
2022/07/31 06:58:56;;;;;;;7.87;7.17;;;;;;;22.57;71.66;98435.81;4202495;28;20687;-84
2022/07/31 07:00:59;;;;;;;8.20;7.50;;;;;;;22.70;70.39;98430.78;4190526;28;20722;-86
2022/07/31 07:03:02;;;;;;;8.13;7.33;;;;;;;22.76;70.23;98438.91;4201536;28;21232;-85
2022/07/31 07:05:07;;;;;;;8.17;7.10;;;;;;;22.86;69.95;98426.22;4202473;28;20632;-85
2022/07/31 07:07:10;;;;;;;7.00;6.40;;;;;;;22.94;71.08;98428.91;4199051;28;20658;-84
2022/07/31 07:09:13;;;;;;;8.00;7.20;;;;;;;23.01;70.30;98432.53;4214851;28;20629;-83
2022/07/31 07:11:17;;;;;;;6.80;6.20;;;;;;;23.10;69.28;98433.31;4203569;28;20660;-86
2022/07/31 07:13:21;;;;;;;6.80;6.20;;;;;;;23.17;68.68;98431.59;4184800;28;20711;-88
2022/07/31 07:15:25;;;;;;;7.33;6.53;;;;;;;23.24;67.18;98433.41;4202437;28;20633;-86
2022/07/31 07:17:29;;;;;;;7.20;6.50;;;;;;;23.37;68.24;98433.66;4217095;27;20645;-87
2022/07/31 07:19:32;;;;;;;9.07;6.20;;;;;;;23.54;67.97;98420.06;4185842;28;20651;-86
2022/07/31 07:21:35;;;;;;;7.03;6.33;;;;;;;23.79;67.76;98426.91;4201350;28;20749;-87
2022/07/31 07:23:39;;;;;;;6.93;6.30;;;;;;;24.06;67.61;98418.38;4205352;28;20642;-87
2022/07/31 07:25:53;;;;;;;7.10;6.50;;;;;;;24.24;67.52;98422.34;4196773;28;20644;-87
2022/07/31 07:27:57;;;;;;;6.37;5.77;;;;;;;24.34;68.04;98423.78;4197254;28;21366;-86
2022/07/31 07:30:02;;;;;;;6.70;6.10;;;;;;;24.42;67.99;98422.88;4195505;28;20635;-87
2022/07/31 07:32:06;;;;;;;6.83;6.27;;;;;;;24.59;67.75;98427.03;4210659;28;20672;-87
2022/07/31 07:34:09;;;;;;;6.20;5.70;;;;;;;24.81;66.20;98429.59;4200230;28;20691;-87
2022/07/31 07:36:12;;;;;;;6.37;5.87;;;;;;;25.07;66.24;98427.31;4199040;28;20643;-88
2022/07/31 07:38:46;;;;;;;6.80;6.10;;;;;;;25.24;64.88;98432.22;4204328;28;20645;-87
2022/07/31 07:40:51;;;;;;;6.17;5.67;;;;;;;25.23;65.08;98425.25;4199365;28;21060;-87
2022/07/31 07:42:54;;;;;;;6.07;5.53;;;;;;;25.30;66.29;98429.66;4211436;28;20625;-87
2022/07/31 07:45:06;;;;;;;8.10;6.40;;;;;;;25.85;63.57;98428.00;4200168;28;20730;-87
2022/07/31 07:47:10;;;;;;;6.87;5.70;;;;;;;26.15;62.41;98430.34;4200239;28;20650;-87
2022/07/31 07:49:13;;;;;;;8.90;5.60;;;;;;;26.46;61.23;98427.31;4189793;28;20765;-87
2022/07/31 07:51:37;;;;;;;6.30;5.80;;;;;;;26.58;61.67;98427.41;4201965;28;20712;-87
2022/07/31 07:54:15;;;;;;;6.30;5.80;;;;;;;26.59;61.44;98430.91;4204446;28;20636;-87
2022/07/31 07:56:53;;;;;;;6.80;6.20;;;;;;;26.39;60.87;98431.81;4172363;28;20655;-87
2022/07/31 07:59:15;;;;;;;6.47;5.87;;;;;;;26.13;61.51;98421.69;4193519;28;20666;-87
2022/07/31 08:01:39;;;;;;;6.33;5.73;;;;;;;25.99;62.13;98426.28;4216678;28;20637;-87
2022/07/31 08:04:00;;;;;;;6.33;5.73;;;;;;;25.94;63.19;98410.00;4187805;28;21041;-87
2022/07/31 08:06:04;;;;;;;11.00;9.90;;;;;;;25.87;61.80;98419.78;4212681;28;21049;-87
2022/07/31 08:08:11;;;;;;;8.73;6.20;;;;;;;25.77;62.46;98417.44;4187266;28;20675;-87
2022/07/31 08:10:18;;;;;;;6.30;5.70;;;;;;;25.73;62.74;98408.16;4214784;28;20641;-87
2022/07/31 08:12:44;;;;;;;7.03;5.47;;;;;;;25.70;62.41;98407.72;4199065;28;20662;-87
2022/07/31 08:15:07;;;;;;;6.67;6.07;;;;;;;25.67;62.69;98413.44;4219361;27;20649;-87
2022/07/31 08:17:19;;;;;;;5.70;5.20;;;;;;;25.64;62.58;98406.63;4218518;27;20633;-87
2022/07/31 08:19:22;;;;;;;5.53;5.07;;;;;;;25.63;63.18;98407.63;4214698;28;20635;-88
2022/07/31 08:21:26;;;;;;;9.00;5.87;;;;;;;25.62;62.30;98405.13;4203788;28;20740;-87
2022/07/31 08:23:30;;;;;;;6.87;6.27;;;;;;;25.60;62.49;98399.13;4193023;28;21209;-87
2022/07/31 08:25:33;;;;;;;6.20;5.60;;;;;;;25.59;61.71;98405.53;4198873;28;21388;-87
2022/07/31 08:27:38;;;;;;;6.00;5.50;;;;;;;25.59;61.61;98402.84;4201263;28;20662;-87
2022/07/31 08:29:44;;;;;;;6.00;5.50;;;;;;;25.58;61.13;98406.53;4216656;27;20640;-86
2022/07/31 08:31:51;;;;;;;6.30;5.70;;;;;;;25.58;61.07;98405.72;4202522;28;20654;-87
2022/07/31 08:34:16;;;;;;;5.60;5.10;;;;;;;25.64;61.57;98403.13;4216034;28;20618;-87
2022/07/31 08:36:34;;;;;;;7.73;7.03;;;;;;;25.75;62.29;98400.75;4199069;28;20652;-87
2022/07/31 08:38:38;;;;;;;6.07;5.57;;;;;;;25.86;61.11;98402.94;4204057;28;20741;-87
2022/07/31 08:41:07;;;;;;;6.53;5.67;;;;;;;25.97;60.42;98406.94;4198423;28;20731;-87
2022/07/31 08:43:11;;;;;;;6.70;5.60;;;;;;;26.19;59.74;98404.88;4215064;27;21263;-86
2022/07/31 08:45:37;;;;;;;6.87;6.27;;;;;;;26.40;60.07;98399.50;4202581;28;20622;-87
2022/07/31 08:47:55;;;;;;;6.00;5.40;;;;;;;26.59;59.54;98396.91;4202458;28;20637;-87
2022/07/31 08:50:05;;;;;;;8.50;5.50;;;;;;;26.83;60.49;98396.44;4205105;28;20634;-89
2022/07/31 08:52:12;;;;;;;6.20;5.60;;;;;;;27.14;60.00;98397.66;4207828;28;20661;-86
2022/07/31 08:54:31;;;;;;;6.40;5.50;;;;;;;27.25;58.04;98398.94;4206176;28;20649;-88
2022/07/31 08:56:36;;;;;;;5.93;5.30;;;;;;;27.48;57.42;98396.72;4212381;28;20694;-87
2022/07/31 08:58:40;;;;;;;5.87;5.27;;;;;;;27.99;57.57;98399.53;4210241;28;20639;-89
2022/07/31 09:00:43;;;;;;;6.30;5.70;;;;;;;28.33;55.53;98402.84;4197064;28;20654;-92
2022/07/31 09:02:46;;;;;;;5.90;5.37;;;;;;;28.26;55.49;98403.91;4209848;28;20640;-91
2022/07/31 09:05:12;;;;;;;5.87;5.30;;;;;;;28.04;55.49;98394.38;4197119;28;20631;-90
2022/07/31 09:07:16;;;;;;;5.93;5.43;;;;;;;28.10;56.03;98397.09;4210382;28;20656;-90
2022/07/31 09:09:19;;;;;;;4.90;4.50;;;;;;;28.24;55.56;98396.03;4195683;28;20637;-90
2022/07/31 09:11:23;;;;;;;5.90;4.80;;;;;;;28.25;55.50;98391.50;4212845;28;20656;-89
2022/07/31 09:13:52;;;;;;;5.67;4.73;;;;;;;28.24;54.60;98392.53;4209469;28;20674;-90
2022/07/31 09:16:13;;;;;;;5.70;5.20;;;;;;;28.11;54.92;98390.66;4215840;28;20667;-90
2022/07/31 09:18:18;;;;;;;6.90;4.67;;;;;;;28.27;55.75;98392.94;4208190;28;20619;-91
2022/07/31 09:20:25;;;;;;;6.33;4.70;;;;;;;28.69;54.47;98395.19;4202675;28;20646;-90
2022/07/31 09:22:31;;;;;;;4.97;4.47;;;;;;;29.07;54.36;98391.53;4203725;28;21105;-91
2022/07/31 09:24:36;;;;;;;4.90;4.37;;;;;;;29.32;52.59;98389.78;4207134;28;20642;-90
2022/07/31 09:26:43;;;;;;;4.63;4.23;;;;;;;29.50;52.04;98386.19;4209852;28;20692;-91
2022/07/31 09:28:50;;;;;;;9.23;4.87;;;;;;;29.76;52.67;98390.59;4208144;28;20671;-90
2022/07/31 09:30:54;;;;;;;4.93;4.53;;;;;;;29.93;50.74;98394.44;4209528;28;20646;-91
2022/07/31 09:33:28;;;;;;;5.33;4.83;;;;;;;30.03;50.51;98379.44;4197037;28;20627;-91
2022/07/31 09:35:52;;;;;;;5.60;5.10;;;;;;;30.05;50.43;98377.34;4219485;28;20672;-91
2022/07/31 09:37:56;;;;;;;6.03;4.50;;;;;;;30.14;52.03;98374.16;4220274;28;20641;-91
2022/07/31 09:40:18;;;;;;;4.83;4.43;;;;;;;30.34;50.43;98380.25;4225799;28;20692;-90
2022/07/31 09:42:55;;;;;;;5.60;4.33;;;;;;;30.55;52.27;98379.81;4207260;28;20631;-91
2022/07/31 09:45:01;;;;;;;6.97;3.87;;;;;;;30.71;50.69;98374.66;4206622;28;21117;-91
2022/07/31 09:47:06;;;;;;;5.77;4.30;;;;;;;30.77;49.72;98373.75;4209513;28;20735;-91
2022/07/31 09:49:10;;;;;;;7.03;3.80;;;;;;;30.84;48.91;98368.28;4193714;28;20647;-90
2022/07/31 09:51:16;;;;;;;5.37;4.10;;;;;;;30.92;49.72;98375.06;4207110;28;20633;-91
2022/07/31 09:53:19;;;;;;;5.00;3.90;;;;;;;31.01;48.71;98371.00;4195056;28;20639;-93
2022/07/31 09:55:26;;;;;;;5.90;4.00;;;;;;;31.01;47.10;98371.00;4197027;28;20646;-91
2022/07/31 09:57:29;;;;;;;4.40;3.97;;;;;;;31.06;47.77;98364.94;4198770;28;21178;-91
2022/07/31 09:59:36;;;;;;;4.03;3.63;;;;;;;31.18;48.03;98363.13;4219986;28;20635;-92
2022/07/31 10:01:40;;;;;;;3.90;3.50;;;;;;;31.20;47.64;98363.72;4212397;28;20753;-92
2022/07/31 10:03:45;;;;;;;5.30;3.43;;;;;;;31.21;46.49;98357.28;4191723;28;20698;-89